• Join FlightAware (Why Join?)
  • Login
  • US Flag 
02:48PM EST


 

Airport Tracker/Info


-or-


 

Live Flight TrackerFlight Track Log ✈ SWA253 ✈ 04-Apr-2013 ✈ KOAK - KBUR

Flight Track Log - Related Links

Times and Time Zones

All times are in EDT time to prevent confusion due to time zone crossing. See the SWA253 flight status page for this flight to view local times or setup timezone preferences in your user account.

Time Position Orientation Groundspeed Altitude Reporting Facility
EDT Latitude Longitude Course Direction KTS MPH feet Rate Location/Type
10:46PM 37.7167 -122.2500 316° Northwest 151 174 1,200  Level Northern Cal TRACON
10:47PM 37.7461 -122.2858 316° Northwest 181 208 3,400 2,940 Climbing Oakland Center
10:48PM 37.7075 -122.3442 230° Southwest 224 258 6,800 3,360 Climbing Oakland Center
10:49PM 37.6433 -122.3056 155° Southeast 268 308 10,300 3,000 Climbing Oakland Center
10:50PM 37.5744 -122.2361 141° Southeast 310 357 13,000 2,940 Climbing Oakland Center
10:51PM 37.4928 -122.1553 142° Southeast 367 422 16,300 3,060 Climbing Oakland Center
10:52PM 37.4094 -122.0722 142° Southeast 381 438 19,300 2,940 Climbing Oakland Center
10:53PM 37.3197 -121.9836 142° Southeast 407 468 22,300 2,580 Climbing Oakland Center
10:54PM 37.2281 -121.8911 141° Southeast 421 484 24,600 2,160 Climbing Oakland Center
10:55PM 37.1161 -121.7831 142° Southeast 449 517 26,700 1,860 Climbing Oakland Center
10:56PM 37.0231 -121.6964 143° Southeast 473 544 28,400 2,400 Climbing Oakland Center
10:57PM 36.8981 -121.5750 142° Southeast 475 547 31,700 2,220 Climbing Oakland Center
10:58PM 36.8108 -121.4897 142° Southeast 467 537 33,000 600 Climbing Oakland Center
10:59PM 36.7089 -121.3908 142° Southeast 466 536 33,000  Level Oakland Center
11:00PM 36.5872 -121.2731 142° Southeast 463 533 33,000  Level Oakland Center
11:01PM 36.4856 -121.1772 143° Southeast 461 531 33,000  Level Oakland Center
11:02PM 36.3850 -121.0797 142° Southeast 458 527 33,000  Level Oakland Center
11:03PM 36.2833 -120.9831 143° Southeast 461 531 33,000  Level Oakland Center
11:04PM 36.1839 -120.8872 142° Southeast 455 524 33,000  Level Oakland Center
11:05PM 36.0833 -120.7911 142° Southeast 456 525 33,000  Level Oakland Center
11:06PM 35.9828 -120.6947 142° Southeast 457 526 33,000  Level Oakland Center
11:07PM 35.8814 -120.5989 143° Southeast 458 527 33,000  Level Oakland Center
11:08PM 35.7803 -120.5042 143° Southeast 456 525 33,000  Level Oakland Center
11:09PM 35.6789 -120.4083 142° Southeast 457 526 33,000  Level Oakland Center
11:10PM 35.5758 -120.3136 143° Southeast 460 529 33,000  Level Oakland Center
11:11PM 35.4769 -120.2225 143° Southeast 462 532 33,000  Level Oakland Center
11:12PM 35.3672 -120.1169 142° Southeast 465 535 33,000  Level Oakland Center
11:12PM 35.3256 -120.0786 143° Southeast 464 534 33,000 -1,200 Level Los Angeles Center
11:13PM 35.2219 -119.9847 143° Southeast 462 532 31,400 -2,100 Descending Los Angeles Center
11:14PM 35.1200 -119.8911 143° Southeast 458 527 28,800 -2,460 Descending Los Angeles Center
11:16PM 35.0333 -119.7836 135° Southeast 448 516 26,400 -2,280 Descending Los Angeles Center
11:17PM 34.9522 -119.6756 132° Southeast 434 499 24,100 -2,400 Descending Los Angeles Center
11:18PM 34.8606 -119.5497 132° Southeast 415 478 21,500 -2,280 Descending Los Angeles Center
11:19PM 34.7872 -119.4497 132° Southeast 399 459 19,400 -2,040 Descending Los Angeles Center
11:20PM 34.7164 -119.3553 132° Southeast 381 438 17,400 -2,040 Descending Los Angeles Center
11:21PM 34.6456 -119.2622 133° Southeast 376 433 15,300 -2,040 Descending Los Angeles Center
11:22PM 34.5758 -119.1722 133° Southeast 363 418 13,300 -1,980 Descending Los Angeles Center
11:23PM 34.5100 -119.0828 132° Southeast 360 414 11,300 -1,140 Descending Los Angeles Center
11:24PM 34.4486 -119.0025 133° Southeast 324 373 11,000 -1,020 Descending Los Angeles Center
11:25PM 34.3792 -118.9094 132° Southeast 311 358 9,300 -1,500 Descending Los Angeles Center
11:26PM 34.3231 -118.8383 134° Southeast 293 337 8,000 -1,500 Descending Los Angeles Center
11:27PM 34.2669 -118.7717 136° Southeast 286 329 6,300 -1,380 Descending Los Angeles Center
11:28PM 34.2136 -118.7078 135° Southeast 278 320 5,200 -1,080 Descending Los Angeles Center
11:29PM 34.1775 -118.6303 119° Southeast 273 314 4,100 -960 Descending Los Angeles Center
11:29PM 34.1667 -118.6000 113° Southeast 257 296 4,000 -420 Descending Southern California TRACON
11:30PM 34.1667 -118.5167 90° East 208 239 3,600 -600 Descending Southern California TRACON
11:31PM 34.1500 -118.4500 107° East 197 227 2,800 -720 Descending Southern California TRACON
11:32PM 34.1500 -118.4000 90° East 156 180 2,200 -600 Descending Southern California TRACON
11:33PM 34.1489 -118.3611 92° East 167 192 1,700 -660 Descending Los Angeles Center
11:34PM 34.1819 -118.3522 13° North 143 165 1,000 -720 Descending Los Angeles Center
11:36PM 34.2000 -118.3500 140° Southeast  Level FlightAware Approximate
11:43PM 34.2007 -118.3587 140° Southeast  Level Estimated